Time;durP1;ratioP1;P1;durP2;ratioP2;P2;SDS_P1;SDS_P2;PMS_P1;PMS_P2;Temp;Humidity;BMP_temperature;BMP_pressure;BME280_temperature;BME280_humidity;BME280_pressure;Samples;Min_cycle;Max_cycle;Signal;HPM_P1;HPM_P2
2021/12/15 00:00:30;;;;;;;14.57;11.20;;;5.60;99.90;;;;;;5031077;28;20191;-51
2021/12/15 00:02:57;;;;;;;12.10;9.53;;;5.70;99.90;;;;;;5031339;28;20176;-52
2021/12/15 00:05:24;;;;;;;13.97;10.97;;;5.80;99.90;;;;;;5031297;28;20174;-49
2021/12/15 00:07:56;;;;;;;13.17;10.30;;;5.90;99.90;;;;;;5030963;28;20164;-50
2021/12/15 00:10:23;;;;;;;13.70;10.07;;;6.00;99.90;;;;;;5031345;28;20214;-49
2021/12/15 00:12:49;;;;;;;13.33;10.57;;;6.00;99.90;;;;;;5030971;28;20167;-49
2021/12/15 00:15:17;;;;;;;26.93;11.60;;;6.10;99.90;;;;;;5030198;28;20245;-51
2021/12/15 00:17:43;;;;;;;17.57;11.03;;;6.10;99.90;;;;;;5029322;28;20175;-49
2021/12/15 00:20:12;;;;;;;14.60;11.07;;;6.00;99.90;;;;;;5030932;28;20204;-47
2021/12/15 00:22:38;;;;;;;16.17;10.23;;;5.90;99.90;;;;;;5031143;28;20191;-51
2021/12/15 00:25:06;;;;;;;14.67;10.80;;;5.90;99.90;;;;;;5029972;28;20184;-52
2021/12/15 00:27:32;;;;;;;13.80;10.33;;;5.90;99.90;;;;;;5030550;28;20717;-49
2021/12/15 00:29:58;;;;;;;13.30;10.30;;;5.80;99.90;;;;;;5030327;28;20227;-53
2021/12/15 00:32:23;;;;;;;14.33;10.90;;;5.80;99.90;;;;;;5030189;28;20258;-49
2021/12/15 00:34:51;;;;;;;14.13;10.57;;;5.90;99.90;;;;;;5030426;28;20168;-52
2021/12/15 00:37:18;;;;;;;13.47;10.27;;;5.90;99.90;;;;;;5031017;28;20696;-52
2021/12/15 00:39:43;;;;;;;15.77;10.47;;;5.90;99.90;;;;;;5030778;28;20342;-52
2021/12/15 00:42:09;;;;;;;13.10;10.13;;;5.80;99.90;;;;;;5030798;28;20259;-49
2021/12/15 00:44:35;;;;;;;13.83;10.37;;;5.80;99.90;;;;;;5031009;28;21026;-47
2021/12/15 00:47:02;;;;;;;13.73;10.67;;;5.80;99.90;;;;;;5030689;28;20275;-47
2021/12/15 00:49:28;;;;;;;12.33;9.70;;;5.90;99.90;;;;;;5031082;28;20180;-46
2021/12/15 00:51:54;;;;;;;13.47;10.17;;;5.90;99.90;;;;;;5030239;28;20187;-49
2021/12/15 00:54:22;;;;;;;16.93;11.17;;;5.80;99.90;;;;;;5030223;28;20572;-53
2021/12/15 00:56:49;;;;;;;16.03;10.50;;;5.80;99.90;;;;;;5030052;28;20547;-51
2021/12/15 00:59:15;;;;;;;15.00;11.00;;;5.60;99.90;;;;;;5028655;28;20720;-50
2021/12/15 01:01:42;;;;;;;20.73;11.10;;;5.50;99.90;;;;;;5030674;28;20206;-54
2021/12/15 01:04:12;;;;;;;17.83;11.93;;;5.40;99.90;;;;;;5031773;28;20176;-49
2021/12/15 01:06:39;;;;;;;16.23;11.03;;;5.30;99.90;;;;;;5033991;28;20691;-51
2021/12/15 01:09:12;;;;;;;17.60;11.17;;;5.10;99.90;;;;;;5033936;28;20222;-50
2021/12/15 01:19:47;;;;;;;15.43;11.03;;;5.10;99.90;;;;;;5034638;28;20241;-49
2021/12/15 01:20:19;;;;;;;15.57;10.77;;;5.20;99.90;;;;;;5034514;28;20230;-50
2021/12/15 01:22:47;;;;;;;16.13;10.93;;;5.20;99.90;;;;;;5034465;28;20652;-49
2021/12/15 01:25:28;;;;;;;15.03;10.73;;;5.10;99.90;;;;;;5033652;28;20183;-50
2021/12/15 01:27:55;;;;;;;17.03;10.87;;;5.10;99.90;;;;;;5034245;28;20171;-50
2021/12/15 01:30:30;;;;;;;17.63;11.77;;;5.30;99.90;;;;;;5033996;28;20188;-51
2021/12/15 01:32:58;;;;;;;19.40;12.87;;;5.30;99.90;;;;;;5034205;28;20202;-50
2021/12/15 01:35:25;;;;;;;16.13;11.10;;;5.40;99.90;;;;;;5033479;28;20214;-52
2021/12/15 01:37:51;;;;;;;25.83;12.37;;;5.50;99.90;;;;;;5033974;28;20257;-49
2021/12/15 01:40:31;;;;;;;19.00;12.17;;;5.50;99.90;;;;;;5033833;28;20187;-51
2021/12/15 01:42:57;;;;;;;16.40;11.80;;;5.40;99.90;;;;;;5033860;28;20785;-52
2021/12/15 01:48:13;;;;;;;49.80;14.60;;;5.60;99.90;;;;;;5034214;28;20194;-49
2021/12/15 01:50:39;;;;;;;19.10;12.93;;;5.70;99.90;;;;;;5033574;28;20338;-49
2021/12/15 01:53:07;;;;;;;19.60;12.90;;;5.80;99.90;;;;;;5033644;28;20186;-50
2021/12/15 01:55:33;;;;;;;17.70;12.77;;;5.80;99.90;;;;;;5033317;28;20183;-51
2021/12/15 01:57:59;;;;;;;19.40;12.83;;;5.90;99.90;;;;;;5033574;28;20175;-52
2021/12/15 02:00:54;;;;;;;17.87;12.47;;;6.00;99.90;;;;;;5033387;28;20196;-49
2021/12/15 02:03:20;;;;;;;18.83;12.87;;;6.00;99.90;;;;;;5031932;28;20262;-51
2021/12/15 02:05:46;;;;;;;20.00;14.27;;;6.10;99.90;;;;;;5032892;28;20589;-53
2021/12/15 02:08:13;;;;;;;20.53;13.67;;;6.20;99.90;;;;;;5033525;28;20180;-54
2021/12/15 02:10:41;;;;;;;17.90;12.50;;;6.30;99.90;;;;;;5033092;28;20184;-51
2021/12/15 02:13:09;;;;;;;19.17;13.47;;;6.30;99.90;;;;;;5033394;28;20676;-50
2021/12/15 02:15:42;;;;;;;16.67;11.50;;;6.30;99.90;;;;;;5032808;28;20202;-49
2021/12/15 02:18:11;;;;;;;18.00;12.47;;;6.40;99.90;;;;;;5033009;28;20286;-49
2021/12/15 02:20:40;;;;;;;17.47;11.83;;;6.40;99.90;;;;;;5033337;28;20270;-49
2021/12/15 02:23:10;;;;;;;16.33;11.43;;;6.40;99.90;;;;;;5033420;28;20206;-49
2021/12/15 02:25:36;;;;;;;17.43;12.00;;;6.40;99.90;;;;;;5032880;28;20207;-49
2021/12/15 02:28:05;;;;;;;17.03;11.90;;;6.50;99.90;;;;;;5032976;28;20191;-51
2021/12/15 02:33:39;;;;;;;15.97;11.57;;;6.40;99.90;;;;;;5032780;28;20171;-50
2021/12/15 02:38:44;;;;;;;14.70;11.53;;;6.50;99.90;;;;;;5032672;28;20266;-50
2021/12/15 02:41:20;;;;;;;15.00;11.10;;;6.40;99.90;;;;;;5032657;28;20192;-50
2021/12/15 02:43:55;;;;;;;16.50;11.97;;;6.40;99.90;;;;;;5032754;28;20167;-53
2021/12/15 02:46:23;;;;;;;16.73;11.83;;;6.50;99.90;;;;;;5032485;28;20168;-53
2021/12/15 02:48:49;;;;;;;17.33;12.03;;;6.50;99.90;;;;;;5032529;28;20194;-50
2021/12/15 02:51:16;;;;;;;15.13;10.80;;;6.50;99.90;;;;;;5032500;28;20203;-50
2021/12/15 02:53:42;;;;;;;15.43;11.17;;;6.50;99.90;;;;;;5032434;28;20175;-51
2021/12/15 02:56:08;;;;;;;17.67;12.33;;;6.60;99.90;;;;;;5032210;28;20171;-52
2021/12/15 02:58:36;;;;;;;16.30;12.37;;;6.60;99.90;;;;;;5032313;28;20253;-50
2021/12/15 03:01:13;;;;;;;16.23;11.90;;;6.70;99.90;;;;;;5032470;28;20195;-49
2021/12/15 03:04:08;;;;;;;15.47;11.53;;;6.70;99.90;;;;;;5032366;28;20195;-54
2021/12/15 03:07:04;;;;;;;17.07;12.27;;;6.70;99.90;;;;;;5031995;28;20672;-53
2021/12/15 03:17:36;;;;;;;14.97;11.47;;;6.60;99.90;;;;;;5031364;28;20671;-53
2021/12/15 03:20:03;;;;;;;16.90;11.33;;;6.60;99.90;;;;;;5031213;28;20669;-49
2021/12/15 03:22:28;;;;;;;16.17;11.40;;;6.50;99.90;;;;;;5031763;28;20176;-49
2021/12/15 03:24:54;;;;;;;15.83;11.43;;;6.40;99.90;;;;;;5031735;28;20171;-55
2021/12/15 03:27:26;;;;;;;15.80;11.33;;;6.40;99.90;;;;;;5031447;28;20178;-49
2021/12/15 03:35:34;;;;;;;14.87;11.23;;;6.40;99.90;;;;;;5030793;28;20226;-51
2021/12/15 03:38:00;;;;;;;14.67;11.57;;;6.40;99.90;;;;;;5031604;28;20526;-51
2021/12/15 03:40:38;;;;;;;16.80;11.63;;;6.40;99.90;;;;;;5031717;28;20194;-50
2021/12/15 03:43:08;;;;;;;14.77;11.37;;;6.40;99.90;;;;;;5032026;28;20195;-51
2021/12/15 03:45:44;;;;;;;14.97;11.93;;;6.40;99.90;;;;;;5031567;28;20633;-52
2021/12/15 03:48:15;;;;;;;14.37;10.93;;;6.40;99.90;;;;;;5031866;28;20178;-50
2021/12/15 03:50:43;;;;;;;14.83;11.60;;;6.40;99.90;;;;;;5044941;22;20237;-56
2021/12/15 03:53:11;;;;;;;14.10;11.10;;;6.40;99.90;;;;;;5029732;28;20207;-53
2021/12/15 03:55:38;;;;;;;13.67;11.07;;;8.00;99.90;;;;;;5030704;28;20215;-52
2021/12/15 03:58:08;;;;;;;14.47;10.93;;;8.00;99.90;;;;;;5031392;28;20176;-55
2021/12/15 04:00:36;;;;;;;14.30;11.30;;;6.30;99.90;;;;;;5031195;28;20254;-53
2021/12/15 04:03:02;;;;;;;14.30;11.13;;;6.40;99.90;;;;;;5030836;28;20700;-50
2021/12/15 04:05:27;;;;;;;11.87;10.00;;;6.30;99.90;;;;;;5030307;28;20176;-55
2021/12/15 04:07:54;;;;;;;13.43;10.70;;;6.30;99.90;;;;;;5030508;28;20914;-53
2021/12/15 04:10:23;;;;;;;30.63;11.23;;;6.40;99.90;;;;;;5030408;28;20191;-54
2021/12/15 04:12:49;;;;;;;12.30;9.87;;;6.40;99.90;;;;;;5031064;28;20208;-55
2021/12/15 04:15:27;;;;;;;14.27;10.73;;;6.40;99.90;;;;;;5031239;28;20164;-52
2021/12/15 04:17:55;;;;;;;13.37;10.20;;;6.40;99.90;;;;;;5030581;28;20667;-52
2021/12/15 04:20:24;;;;;;;13.23;10.67;;;6.40;99.90;;;;;;5031318;28;20199;-56
2021/12/15 04:22:50;;;;;;;14.13;10.93;;;6.30;99.90;;;;;;5031368;28;20672;-56
2021/12/15 04:25:24;;;;;;;14.03;10.77;;;6.30;99.90;;;;;;5030975;28;20180;-50
2021/12/15 04:27:53;;;;;;;13.40;10.70;;;6.30;99.90;;;;;;5031115;28;20258;-56
2021/12/15 04:30:19;;;;;;;13.97;10.73;;;6.30;99.90;;;;;;5030493;28;20206;-56
2021/12/15 04:32:47;;;;;;;12.27;9.57;;;6.30;99.90;;;;;;5030508;28;20641;-56
2021/12/15 04:35:13;;;;;;;14.37;11.00;;;6.40;99.90;;;;;;5030110;28;20255;-56
2021/12/15 04:37:40;;;;;;;19.80;10.63;;;6.40;99.90;;;;;;5031087;28;20180;-51
2021/12/15 04:40:08;;;;;;;15.23;11.87;;;6.40;99.90;;;;;;5035057;28;20262;-53
2021/12/15 04:42:34;;;;;;;14.73;10.90;;;6.30;99.90;;;;;;5034897;28;20180;-53
2021/12/15 04:44:59;;;;;;;15.13;11.17;;;6.20;99.90;;;;;;5034743;28;20190;-55
2021/12/15 04:47:26;;;;;;;15.83;11.90;;;6.20;99.90;;;;;;5034606;28;20310;-51
2021/12/15 04:49:55;;;;;;;16.43;11.30;;;6.20;99.90;;;;;;5034759;28;20499;-53
2021/12/15 04:52:24;;;;;;;15.93;11.73;;;6.30;99.90;;;;;;5034870;28;20179;-51
2021/12/15 04:54:50;;;;;;;15.73;11.27;;;6.30;99.90;;;;;;5034372;28;20219;-50
2021/12/15 04:57:19;;;;;;;15.83;11.27;;;6.20;99.90;;;;;;5034847;28;20183;-49
2021/12/15 04:59:45;;;;;;;13.97;11.03;;;6.20;99.90;;;;;;5033381;28;20669;-54
2021/12/15 05:02:13;;;;;;;17.33;11.73;;;6.20;99.90;;;;;;5033529;28;20180;-52
2021/12/15 05:04:39;;;;;;;17.13;11.70;;;6.20;99.90;;;;;;5033423;28;20180;-52
2021/12/15 05:07:05;;;;;;;27.53;12.50;;;6.20;99.90;;;;;;5033599;28;20637;-54
2021/12/15 05:09:31;;;;;;;23.27;12.00;;;6.20;99.90;;;;;;5034388;28;20668;-50
2021/12/15 05:11:57;;;;;;;41.93;14.27;;;6.30;99.90;;;;;;5034144;28;20196;-51
2021/12/15 05:14:24;;;;;;;16.13;11.77;;;6.30;99.90;;;;;;5034261;28;20661;-52
2021/12/15 05:16:52;;;;;;;18.07;12.83;;;6.30;99.90;;;;;;5034023;28;20660;-53
2021/12/15 05:19:19;;;;;;;18.67;13.17;;;6.20;99.90;;;;;;5034273;28;20671;-50
2021/12/15 05:21:45;;;;;;;16.07;11.53;;;6.20;99.90;;;;;;5033996;28;20202;-55
2021/12/15 05:24:22;;;;;;;16.67;11.70;;;6.20;99.90;;;;;;5034067;28;20803;-49
2021/12/15 05:26:48;;;;;;;15.33;11.47;;;6.30;99.90;;;;;;5033662;28;20172;-57
2021/12/15 05:29:13;;;;;;;18.33;12.83;;;6.30;99.90;;;;;;5033345;28;20660;-52
2021/12/15 05:31:40;;;;;;;16.77;12.87;;;6.30;99.90;;;;;;5033258;28;20195;-55
2021/12/15 05:34:05;;;;;;;17.50;12.73;;;6.20;99.90;;;;;;5033398;28;20180;-52
2021/12/15 05:36:31;;;;;;;26.77;13.77;;;6.20;99.90;;;;;;5032799;28;20283;-55
2021/12/15 05:38:57;;;;;;;17.23;12.70;;;6.20;99.90;;;;;;5033750;28;20206;-56
2021/12/15 05:41:23;;;;;;;16.07;11.90;;;6.10;99.90;;;;;;5033998;28;20542;-53
2021/12/15 05:43:49;;;;;;;17.07;11.83;;;6.10;99.90;;;;;;5031245;28;20176;-52
2021/12/15 05:46:15;;;;;;;14.37;10.80;;;6.10;99.90;;;;;;5032916;28;20175;-56
2021/12/15 05:48:41;;;;;;;17.97;12.07;;;6.20;99.90;;;;;;5032860;28;20258;-55
2021/12/15 05:51:06;;;;;;;17.07;12.60;;;6.20;99.90;;;;;;5031388;28;20338;-51
2021/12/15 05:53:32;;;;;;;17.27;12.90;;;6.20;99.90;;;;;;5033159;28;20195;-54
2021/12/15 05:55:58;;;;;;;16.47;12.20;;;6.20;99.90;;;;;;5033046;28;20553;-57
2021/12/15 05:58:23;;;;;;;20.27;13.60;;;6.30;99.90;;;;;;5033381;28;20664;-57
2021/12/15 06:00:50;;;;;;;18.33;13.53;;;6.30;99.90;;;;;;5032573;28;20270;-53
2021/12/15 06:03:16;;;;;;;18.47;13.37;;;6.30;99.90;;;;;;5032413;28;20176;-49
2021/12/15 06:05:42;;;;;;;20.30;13.87;;;6.30;99.90;;;;;;5032021;28;20521;-51
2021/12/15 06:08:08;;;;;;;19.60;13.10;;;6.30;99.90;;;;;;5032603;28;20179;-53
2021/12/15 06:10:35;;;;;;;18.97;13.27;;;6.40;99.90;;;;;;5032308;28;20184;-52
2021/12/15 06:13:05;;;;;;;27.93;14.90;;;6.30;99.90;;;;;;5033318;28;20180;-54
2021/12/15 06:15:31;;;;;;;28.40;13.10;;;6.50;99.90;;;;;;5032840;28;20176;-55
2021/12/15 06:18:24;;;;;;;21.67;15.20;;;6.40;99.90;;;;;;5032822;28;20183;-52
2021/12/15 06:20:52;;;;;;;18.10;13.30;;;6.40;99.90;;;;;;5028543;28;20208;-53
2021/12/15 06:23:20;;;;;;;19.40;14.07;;;6.30;99.90;;;;;;5032850;28;20196;-52
2021/12/15 06:25:58;;;;;;;18.83;13.83;;;6.30;99.90;;;;;;5032757;28;20264;-53
2021/12/15 06:28:26;;;;;;;19.03;13.30;;;6.30;99.90;;;;;;5032440;28;20529;-55
2021/12/15 06:30:53;;;;;;;18.33;12.80;;;6.30;99.90;;;;;;5031875;28;20860;-53
2021/12/15 06:33:19;;;;;;;18.00;13.00;;;6.30;99.90;;;;;;5031728;28;20807;-52
2021/12/15 06:35:53;;;;;;;17.50;13.10;;;6.30;99.90;;;;;;5035551;28;20175;-58
2021/12/15 06:38:24;;;;;;;17.47;12.90;;;6.30;99.90;;;;;;5050268;28;20563;-53
2021/12/15 06:40:50;;;;;;;18.93;13.63;;;6.40;99.90;;;;;;5049474;28;20688;-56
2021/12/15 06:43:16;;;;;;;18.47;13.17;;;6.50;99.90;;;;;;5029419;28;20218;-55
2021/12/15 06:45:57;;;;;;;18.57;12.87;;;6.50;99.90;;;;;;5031768;28;20164;-52
2021/12/15 06:59:20;;;;;;;16.83;12.20;;;6.50;99.90;;;;;;5032016;28;20282;-55
2021/12/15 07:01:48;;;;;;;18.63;12.83;;;6.50;99.90;;;;;;5030460;28;20270;-54
2021/12/15 07:04:13;;;;;;;18.83;12.47;;;6.60;99.90;;;;;;5030666;28;20179;-54
2021/12/15 07:06:39;;;;;;;16.57;11.93;;;6.60;99.90;;;;;;5024623;28;20723;-56
2021/12/15 07:09:06;;;;;;;17.40;12.63;;;6.60;99.90;;;;;;5030294;28;20266;-54
2021/12/15 07:11:31;;;;;;;17.87;12.40;;;6.60;99.90;;;;;;5029721;28;20199;-54
2021/12/15 07:13:57;;;;;;;18.73;11.90;;;6.60;99.90;;;;;;5031394;28;20187;-57
2021/12/15 07:16:24;;;;;;;15.93;10.93;;;6.60;99.90;;;;;;5024536;28;20179;-52
2021/12/15 07:19:04;;;;;;;16.77;11.67;;;6.70;99.90;;;;;;5031576;28;20290;-53
2021/12/15 07:21:35;;;;;;;17.33;12.37;;;6.70;99.90;;;;;;5031458;28;20231;-56
2021/12/15 07:24:02;;;;;;;16.87;12.13;;;6.70;99.90;;;;;;5045467;28;20584;-57
2021/12/15 07:26:27;;;;;;;16.60;11.80;;;6.70;99.90;;;;;;5041440;28;20176;-58
2021/12/15 07:28:53;;;;;;;14.97;11.10;;;6.80;99.90;;;;;;5031951;28;20230;-50
2021/12/15 07:31:19;;;;;;;16.40;11.97;;;6.80;99.90;;;;;;5031609;28;20199;-53
2021/12/15 07:33:45;;;;;;;17.23;11.73;;;6.70;99.90;;;;;;5031468;28;20182;-51
2021/12/15 07:36:13;;;;;;;18.50;12.80;;;6.80;99.90;;;;;;5031304;28;20222;-48
2021/12/15 07:38:41;;;;;;;17.60;12.07;;;6.80;99.90;;;;;;5031253;28;20700;-56
2021/12/15 07:41:17;;;;;;;18.73;12.20;;;6.80;99.90;;;;;;5031380;28;20245;-54
2021/12/15 07:43:43;;;;;;;16.90;12.00;;;6.80;99.90;;;;;;5031435;28;20171;-54
2021/12/15 07:46:08;;;;;;;16.87;12.10;;;6.80;99.90;;;;;;5026698;28;20187;-50
2021/12/15 07:48:35;;;;;;;16.67;11.77;;;6.80;99.90;;;;;;5031040;28;20179;-56
2021/12/15 07:51:04;;;;;;;16.83;12.27;;;6.70;99.90;;;;;;5012367;28;20595;-53
2021/12/15 07:53:30;;;;;;;18.23;12.57;;;6.70;99.90;;;;;;5030150;28;20871;-57
2021/12/15 07:55:57;;;;;;;18.87;11.73;;;6.70;99.90;;;;;;5020352;28;20266;-57
2021/12/15 07:58:24;;;;;;;15.90;12.13;;;6.70;99.90;;;;;;5030914;28;20207;-53
2021/12/15 08:00:51;;;;;;;15.57;11.67;;;6.60;99.90;;;;;;5030899;28;20222;-49
2021/12/15 08:03:17;;;;;;;15.87;11.40;;;6.60;99.90;;;;;;5030745;28;20168;-52
2021/12/15 08:05:47;;;;;;;16.17;11.80;;;6.60;99.90;;;;;;5029988;28;20269;-55
2021/12/15 08:08:12;;;;;;;16.73;11.67;;;6.80;99.90;;;;;;5029881;28;20605;-56
2021/12/15 08:10:38;;;;;;;17.23;12.10;;;6.70;99.90;;;;;;5029703;28;20191;-57
2021/12/15 08:13:04;;;;;;;17.37;11.97;;;6.70;99.90;;;;;;5030966;28;20168;-55
2021/12/15 08:15:29;;;;;;;18.87;12.90;;;6.70;99.90;;;;;;5033687;28;20576;-57
2021/12/15 08:17:55;;;;;;;15.10;11.43;;;6.80;99.90;;;;;;5034840;28;20194;-56
2021/12/15 08:20:25;;;;;;;17.70;12.77;;;6.80;99.90;;;;;;5034631;28;20207;-53
2021/12/15 08:22:52;;;;;;;18.30;12.83;;;6.80;99.90;;;;;;5032382;28;20209;-51
2021/12/15 08:25:19;;;;;;;18.30;12.77;;;6.80;99.90;;;;;;5033385;28;20649;-51
2021/12/15 08:27:45;;;;;;;16.80;12.10;;;6.70;99.90;;;;;;5032914;28;20168;-52
2021/12/15 08:30:19;;;;;;;16.60;11.83;;;6.70;99.90;;;;;;5032905;28;20619;-51
2021/12/15 08:32:50;;;;;;;18.67;12.70;;;6.70;99.90;;;;;;5033566;28;20179;-55
2021/12/15 08:35:18;;;;;;;17.90;12.23;;;6.70;99.90;;;;;;5033999;28;20190;-52
2021/12/15 08:37:44;;;;;;;17.77;12.50;;;6.70;99.90;;;;;;5035150;28;20532;-50
2021/12/15 08:40:10;;;;;;;15.73;12.10;;;6.80;99.90;;;;;;5034444;28;20195;-48
2021/12/15 08:42:37;;;;;;;18.87;13.30;;;6.80;99.90;;;;;;5033592;28;20612;-48
2021/12/15 08:45:03;;;;;;;17.43;12.63;;;6.90;99.90;;;;;;5034078;28;20712;-53
2021/12/15 08:47:29;;;;;;;19.40;13.07;;;6.90;99.90;;;;;;5034155;28;20680;-52
2021/12/15 08:49:55;;;;;;;16.43;12.13;;;6.90;99.90;;;;;;5034371;28;20187;-48
2021/12/15 08:52:21;;;;;;;16.03;11.47;;;6.90;99.90;;;;;;5034441;28;20175;-50
2021/12/15 08:54:48;;;;;;;16.97;12.73;;;6.90;99.90;;;;;;5034573;28;20264;-52
2021/12/15 08:57:14;;;;;;;18.37;13.00;;;6.90;99.90;;;;;;5034485;28;20171;-47
2021/12/15 08:59:39;;;;;;;16.30;11.77;;;6.90;99.90;;;;;;5033880;28;20199;-54
2021/12/15 09:02:05;;;;;;;16.23;11.87;;;7.00;99.90;;;;;;5033391;28;20191;-53
2021/12/15 09:04:31;;;;;;;18.17;12.90;;;7.00;99.90;;;;;;5033953;28;20175;-49
2021/12/15 09:06:58;;;;;;;16.60;11.87;;;7.10;99.90;;;;;;5034528;28;20175;-50
2021/12/15 09:09:25;;;;;;;20.20;13.53;;;7.10;99.90;;;;;;5034319;28;20262;-55
2021/12/15 09:11:52;;;;;;;19.13;13.80;;;7.30;99.90;;;;;;5049684;28;20199;-51
2021/12/15 09:14:18;;;;;;;17.13;12.17;;;7.20;99.90;;;;;;5033852;28;20179;-54
2021/12/15 09:16:48;;;;;;;16.80;12.27;;;7.20;99.90;;;;;;5033565;28;20176;-53
2021/12/15 09:19:15;;;;;;;16.03;11.30;;;7.30;99.90;;;;;;5034267;28;20204;-55
2021/12/15 09:21:42;;;;;;;16.53;11.43;;;7.20;99.90;;;;;;5033737;28;20253;-53
2021/12/15 09:24:10;;;;;;;14.67;10.70;;;7.30;99.90;;;;;;5033753;28;20164;-55
2021/12/15 09:26:37;;;;;;;14.63;11.03;;;7.30;99.90;;;;;;5032911;28;20259;-55
2021/12/15 09:29:04;;;;;;;13.00;9.80;;;7.30;99.90;;;;;;5033976;28;20544;-53
2021/12/15 09:31:30;;;;;;;14.37;10.80;;;7.40;99.90;;;;;;5033743;28;20203;-57
2021/12/15 09:33:58;;;;;;;16.10;11.83;;;7.30;99.90;;;;;;5032901;28;20179;-57
2021/12/15 09:36:25;;;;;;;14.53;10.50;;;7.40;99.90;;;;;;5032028;28;20221;-49
2021/12/15 09:38:56;;;;;;;14.60;10.87;;;7.30;99.90;;;;;;5031783;28;20203;-51
2021/12/15 09:41:23;;;;;;;17.17;12.70;;;7.30;99.90;;;;;;5029516;28;20560;-53
2021/12/15 09:43:52;;;;;;;14.43;10.90;;;7.40;99.90;;;;;;5031444;28;20704;-54
2021/12/15 09:57:20;;;;;;;17.63;12.80;;;7.30;99.90;;;;;;5026768;28;20195;-51
2021/12/15 10:18:56;;;;;;;20.73;12.63;;;7.50;99.90;;;;;;5033660;28;20254;-54
2021/12/15 10:21:26;;;;;;;17.97;12.43;;;7.50;99.90;;;;;;5033295;28;20605;-51
2021/12/15 10:23:53;;;;;;;17.17;12.70;;;7.40;99.90;;;;;;5033305;28;20274;-50
2021/12/15 10:26:21;;;;;;;18.33;12.50;;;7.40;99.90;;;;;;5032845;28;20176;-49
2021/12/15 10:28:52;;;;;;;16.53;12.50;;;7.40;99.90;;;;;;5031236;28;20633;-50
2021/12/15 10:31:21;;;;;;;16.80;12.57;;;7.40;99.90;;;;;;5032956;28;20219;-55
2021/12/15 10:33:54;;;;;;;17.97;12.97;;;7.30;99.90;;;;;;5033199;28;20168;-50
2021/12/15 10:36:24;;;;;;;16.90;12.47;;;7.30;99.90;;;;;;5032599;28;20156;-50
2021/12/15 10:38:57;;;;;;;16.33;12.00;;;7.30;99.90;;;;;;5032829;28;20225;-54
2021/12/15 10:41:33;;;;;;;15.17;11.70;;;7.40;99.90;;;;;;5032921;28;20893;-53
2021/12/15 10:44:07;;;;;;;16.87;12.30;;;7.50;99.90;;;;;;5032848;28;20195;-51
2021/12/15 10:46:38;;;;;;;23.07;16.80;;;7.60;99.90;;;;;;5031335;28;20218;-51
2021/12/15 10:49:11;;;;;;;17.80;12.93;;;7.60;99.90;;;;;;5032900;28;20172;-52
2021/12/15 10:51:44;;;;;;;17.03;12.63;;;7.70;99.90;;;;;;5032739;28;20731;-52
2021/12/15 10:54:09;;;;;;;16.37;11.80;;;7.80;99.90;;;;;;5032827;28;20167;-50
2021/12/15 10:56:40;;;;;;;18.07;12.80;;;7.60;99.90;;;;;;5032353;28;20234;-50
2021/12/15 10:59:12;;;;;;;17.73;12.43;;;7.50;99.90;;;;;;5031414;28;20219;-55
2021/12/15 11:01:46;;;;;;;16.40;11.17;;;7.60;99.90;;;;;;5032087;28;20249;-49
2021/12/15 11:04:23;;;;;;;16.90;11.77;;;7.50;99.90;;;;;;5032507;28;20171;-53
2021/12/15 11:07:13;;;;;;;16.83;12.30;;;7.50;99.90;;;;;;5032237;28;20542;-49
2021/12/15 11:09:49;;;;;;;17.97;13.53;;;7.50;99.90;;;;;;5032511;28;20175;-51
2021/12/15 11:12:33;;;;;;;17.73;12.20;;;7.60;99.90;;;;;;5032249;28;20249;-49
2021/12/15 11:15:07;;;;;;;16.53;11.90;;;7.50;99.90;;;;;;5032059;28;20176;-53
2021/12/15 11:17:42;;;;;;;17.60;12.93;;;7.30;99.90;;;;;;5032536;28;20187;-49
2021/12/15 11:20:14;;;;;;;16.80;12.50;;;7.30;99.90;;;;;;5032485;28;20199;-49
2021/12/15 11:22:53;;;;;;;16.67;11.87;;;7.30;99.90;;;;;;5032174;28;20286;-49
2021/12/15 11:25:21;;;;;;;15.27;10.93;;;7.30;99.90;;;;;;5032581;28;20701;-50
2021/12/15 11:27:51;;;;;;;15.30;10.97;;;7.40;99.90;;;;;;5032091;28;20226;-50
2021/12/15 11:30:23;;;;;;;15.00;10.87;;;7.30;99.90;;;;;;5032186;28;20182;-51
2021/12/15 11:32:52;;;;;;;14.10;10.17;;;7.40;99.90;;;;;;5031958;28;20192;-49
2021/12/15 11:35:23;;;;;;;14.87;10.90;;;7.30;99.90;;;;;;5031736;28;20641;-54
2021/12/15 11:37:57;;;;;;;16.27;10.93;;;7.00;99.90;;;;;;5031939;28;20190;-50
2021/12/15 11:40:31;;;;;;;18.20;11.53;;;6.90;99.90;;;;;;5031947;28;20215;-50
2021/12/15 11:42:57;;;;;;;17.40;11.97;;;6.90;99.90;;;;;;5031964;28;20199;-52
2021/12/15 11:45:23;;;;;;;15.70;10.37;;;7.10;99.90;;;;;;5031574;28;20229;-52
2021/12/15 11:47:49;;;;;;;14.60;10.33;;;7.00;99.90;;;;;;5031228;28;20175;-49
2021/12/15 11:50:21;;;;;;;13.47;9.77;;;7.20;99.90;;;;;;5031778;28;20171;-54
2021/12/15 11:52:49;;;;;;;15.40;10.17;;;7.30;99.90;;;;;;5031708;28;20231;-49
2021/12/15 11:55:28;;;;;;;17.47;11.40;;;7.40;99.90;;;;;;5031576;28;20211;-49
2021/12/15 11:57:55;;;;;;;15.80;11.30;;;7.50;99.90;;;;;;5031700;28;20187;-52
2021/12/15 12:00:26;;;;;;;15.90;10.93;;;7.30;99.90;;;;;;5031662;28;20318;-49
2021/12/15 12:02:54;;;;;;;15.67;11.17;;;7.20;99.90;;;;;;5031578;28;20601;-49
2021/12/15 12:05:23;;;;;;;16.27;11.00;;;7.30;99.90;;;;;;5031442;28;20533;-50
2021/12/15 12:07:53;;;;;;;15.93;10.90;;;7.30;99.90;;;;;;5031727;28;20640;-49
2021/12/15 12:10:26;;;;;;;15.27;10.40;;;7.30;99.90;;;;;;5031248;28;20275;-51
2021/12/15 12:13:03;;;;;;;18.83;12.50;;;7.30;99.90;;;;;;5031534;28;20277;-49
2021/12/15 12:15:30;;;;;;;14.17;10.30;;;7.30;99.90;;;;;;5031486;28;20164;-49
2021/12/15 12:18:04;;;;;;;16.13;11.13;;;7.40;99.90;;;;;;5031629;28;20225;-50
2021/12/15 12:20:43;;;;;;;16.70;11.33;;;7.60;99.90;;;;;;5031397;28;20203;-54
2021/12/15 12:23:13;;;;;;;17.83;11.90;;;7.60;99.90;;;;;;5031379;28;20215;-53
2021/12/15 12:25:43;;;;;;;16.10;10.80;;;7.70;99.90;;;;;;5031332;28;20172;-50
2021/12/15 12:28:13;;;;;;;18.50;12.03;;;7.70;99.90;;;;;;5031683;28;20180;-53
2021/12/15 12:30:45;;;;;;;16.33;11.23;;;7.80;99.90;;;;;;5031436;28;20519;-51
2021/12/15 12:33:12;;;;;;;19.53;12.10;;;7.90;99.90;;;;;;5031554;28;20196;-51
2021/12/15 12:35:43;;;;;;;16.67;10.83;;;8.00;99.90;;;;;;5029864;28;20188;-49
2021/12/15 12:38:16;;;;;;;14.20;10.73;;;8.00;99.90;;;;;;5031413;28;20688;-53
2021/12/15 12:40:56;;;;;;;15.73;11.13;;;8.10;99.90;;;;;;5031439;28;20635;-53
2021/12/15 12:43:28;;;;;;;15.13;10.67;;;8.10;99.90;;;;;;5031492;28;20175;-49
2021/12/15 12:46:14;;;;;;;16.77;12.03;;;8.00;99.90;;;;;;5030974;28;20651;-51
2021/12/15 12:48:56;;;;;;;15.50;11.60;;;8.10;99.90;;;;;;5031624;28;20557;-49
2021/12/15 13:00:36;;;;;;;15.70;11.23;;;8.30;99.90;;;;;;5033829;28;20698;-51
2021/12/15 13:03:18;;;;;;;16.17;11.63;;;8.30;99.90;;;;;;5034760;28;20195;-54
2021/12/15 13:06:00;;;;;;;16.37;11.63;;;8.30;99.90;;;;;;5034573;28;20164;-54
2021/12/15 13:08:28;;;;;;;16.87;12.50;;;8.30;99.90;;;;;;5034841;28;20251;-54
2021/12/15 13:10:57;;;;;;;16.63;11.97;;;8.20;99.90;;;;;;5034212;28;20593;-51
2021/12/15 13:13:33;;;;;;;16.97;11.87;;;8.10;99.90;;;;;;5034309;28;20259;-51
2021/12/15 13:16:06;;;;;;;15.07;11.47;;;8.20;99.90;;;;;;5034324;28;20163;-54
2021/12/15 13:18:48;;;;;;;17.47;11.63;;;8.20;99.90;;;;;;5034355;28;20196;-53
2021/12/15 13:21:16;;;;;;;17.27;11.20;;;8.20;99.90;;;;;;5034454;28;20196;-49
2021/12/15 13:23:49;;;;;;;18.77;12.43;;;8.20;99.90;;;;;;5034300;28;20610;-48
2021/12/15 13:29:52;;;;;;;17.20;11.97;;;8.20;99.90;;;;;;5034580;28;20298;-48
2021/12/15 13:32:20;;;;;;;16.63;12.30;;;8.20;99.90;;;;;;5034202;28;20656;-50
2021/12/15 13:34:48;;;;;;;18.33;13.17;;;8.20;99.90;;;;;;5033914;28;20259;-53
2021/12/15 13:37:49;;;;;;;18.17;13.63;;;8.20;99.90;;;;;;5034254;28;20176;-55
2021/12/15 13:40:15;;;;;;;17.30;12.67;;;8.20;99.90;;;;;;4972783;28;20209;-53
2021/12/15 13:42:52;;;;;;;24.03;17.40;;;8.20;99.90;;;;;;4972814;28;20268;-50
2021/12/15 13:45:27;;;;;;;32.13;23.17;;;8.20;99.90;;;;;;4972630;28;20185;-53
2021/12/15 13:47:53;;;;;;;82.77;48.93;;;8.20;99.90;;;;;;4972967;28;20186;-52
2021/12/15 13:50:22;;;;;;;25.83;18.23;;;8.20;99.90;;;;;;4972684;28;20205;-51
2021/12/15 13:52:55;;;;;;;21.50;15.57;;;8.20;99.90;;;;;;4972417;28;20261;-49
2021/12/15 13:55:30;;;;;;;19.33;13.73;;;8.20;99.90;;;;;;4972086;28;20186;-52
2021/12/15 13:58:17;;;;;;;20.37;14.33;;;8.20;99.90;;;;;;4972735;28;20177;-49
2021/12/15 14:00:50;;;;;;;21.57;14.50;;;8.10;99.90;;;;;;4971276;28;20197;-49
2021/12/15 14:03:42;;;;;;;22.47;15.00;;;8.10;99.90;;;;;;4972609;28;20717;-50
2021/12/15 14:06:15;;;;;;;23.07;15.53;;;8.00;99.90;;;;;;4972402;28;20210;-50
2021/12/15 14:08:53;;;;;;;20.43;13.97;;;8.00;99.90;;;;;;4972595;28;20190;-52
2021/12/15 14:11:32;;;;;;;18.37;12.50;;;8.00;99.90;;;;;;4971778;28;20202;-52